createdAt,value
2023-03-21T00:01:52.611Z,8.78
2023-03-21T00:04:20.399Z,8.85
2023-03-21T00:06:48.037Z,8.90
2023-03-21T00:09:15.743Z,8.86
2023-03-21T00:11:43.629Z,8.91
2023-03-21T00:14:14.488Z,8.86
2023-03-21T00:16:45.771Z,8.91
2023-03-21T00:19:16.036Z,8.91
2023-03-21T00:21:59.608Z,8.95
2023-03-21T00:24:32.074Z,8.95
2023-03-21T00:27:15.871Z,9.01
2023-03-21T00:29:49.309Z,9.04
2023-03-21T00:32:19.856Z,9.08
2023-03-21T00:35:38.410Z,9.05
2023-03-21T00:37:38.455Z,9.08
2023-03-21T00:40:16.262Z,9.06
2023-03-21T00:42:47.315Z,9.07
2023-03-21T00:45:16.504Z,9.13
2023-03-21T00:47:44.214Z,9.23
2023-03-21T00:50:14.580Z,9.18
2023-03-21T00:52:42.504Z,9.14
2023-03-21T00:55:14.431Z,9.12
2023-03-21T00:57:45.352Z,9.15
2023-03-21T01:00:17.886Z,9.12
2023-03-21T01:03:02.784Z,9.11
2023-03-21T01:05:55.525Z,9.24
2023-03-21T01:08:30.998Z,9.19
2023-03-21T01:11:05.717Z,9.13
2023-03-21T01:13:36.341Z,9.15
2023-03-21T01:16:06.176Z,9.09
2023-03-21T01:18:35.682Z,9.28
2023-03-21T01:21:08.279Z,9.31
2023-03-21T01:23:36.389Z,9.40
2023-03-21T01:26:04.448Z,9.29
2023-03-21T01:28:32.772Z,9.35
2023-03-21T01:31:02.764Z,8.91
2023-03-21T01:33:31.426Z,9.26
2023-03-21T01:36:11.744Z,9.17
2023-03-21T01:38:42.469Z,9.10
2023-03-21T01:41:36.642Z,9.17
2023-03-21T01:44:17.148Z,9.06
2023-03-21T01:46:57.365Z,9.10
2023-03-21T01:49:50.649Z,9.14
2023-03-21T01:52:35.909Z,9.00
2023-03-21T01:55:12.523Z,8.99
2023-03-21T01:58:08.193Z,8.89
2023-03-21T02:00:50.065Z,8.98
2023-03-21T02:03:35.807Z,8.93
2023-03-21T02:06:33.542Z,8.90
2023-03-21T02:09:14.889Z,8.89
2023-03-21T02:11:46.521Z,8.82
2023-03-21T02:14:26.648Z,8.90
2023-03-21T02:17:10.361Z,8.86
2023-03-21T02:20:16.888Z,8.93
2023-03-21T02:23:11.542Z,8.93
2023-03-21T02:26:18.629Z,8.95
2023-03-21T02:28:50.407Z,8.50
2023-03-21T02:31:34.375Z,8.78
2023-03-21T02:34:33.502Z,8.82
2023-03-21T02:37:17.141Z,8.88
2023-03-21T02:39:55.688Z,8.89
2023-03-21T02:42:30.529Z,8.86
2023-03-21T02:45:04.341Z,8.84
2023-03-21T02:47:40.520Z,8.83
2023-03-21T02:50:13.205Z,8.92
2023-03-21T02:52:45.995Z,8.93
2023-03-21T02:55:18.915Z,8.92
2023-03-21T02:58:12.457Z,8.92
2023-03-21T03:00:47.380Z,8.87
2023-03-21T03:03:33.645Z,8.82
2023-03-21T03:06:08.533Z,8.72
2023-03-21T03:08:56.323Z,8.77
2023-03-21T03:11:32.424Z,8.54
2023-03-21T03:14:36.993Z,8.24
2023-03-21T03:17:18.545Z,8.46
2023-03-21T03:20:04.286Z,8.21
2023-03-21T03:22:48.065Z,8.08
2023-03-21T03:25:32.609Z,8.05
2023-03-21T03:28:09.265Z,7.92
2023-03-21T03:30:44.942Z,7.98
2023-03-21T03:33:23.348Z,7.83
2023-03-21T03:36:04.657Z,7.68
2023-03-21T03:38:36.696Z,7.49
2023-03-21T03:41:11.580Z,7.45
2023-03-21T03:43:56.976Z,7.77
2023-03-21T03:46:33.346Z,7.85
2023-03-21T03:49:06.981Z,7.67
2023-03-21T03:51:41.986Z,7.49
2023-03-21T03:54:25.423Z,7.75
2023-03-21T03:56:55.724Z,7.77
2023-03-21T03:59:25.018Z,7.78
2023-03-21T04:02:20.170Z,7.88
2023-03-21T04:04:52.828Z,7.83
2023-03-21T04:07:21.423Z,7.87
2023-03-21T04:09:51.880Z,7.86
2023-03-21T04:12:22.644Z,7.85
2023-03-21T04:15:11.071Z,7.86
2023-03-21T04:17:45.351Z,7.62
2023-03-21T04:20:23.629Z,7.70
2023-03-21T04:22:58.248Z,7.86
2023-03-21T04:25:33.981Z,7.81
2023-03-21T04:28:05.572Z,7.79
2023-03-21T04:31:02.522Z,7.64
2023-03-21T04:33:41.788Z,7.63
2023-03-21T04:36:26.328Z,7.57
2023-03-21T04:39:00.734Z,7.49
2023-03-21T04:41:29.639Z,7.57
2023-03-21T04:43:59.463Z,7.64
2023-03-21T04:46:27.157Z,7.58
2023-03-21T04:48:55.418Z,7.67
2023-03-21T04:51:23.358Z,7.58
2023-03-21T04:53:52.472Z,7.48
2023-03-21T04:56:20.365Z,7.55
2023-03-21T04:58:48.068Z,7.43
2023-03-21T05:01:20.775Z,7.25
2023-03-21T05:03:49.162Z,7.20
2023-03-21T05:06:17.014Z,7.32
2023-03-21T05:08:45.176Z,7.03
2023-03-21T05:11:13.483Z,7.17
2023-03-21T05:13:41.517Z,7.11
2023-03-21T05:16:10.166Z,7.17
2023-03-21T05:18:39.556Z,7.35
2023-03-21T05:21:18.015Z,7.53
2023-03-21T05:23:54.854Z,7.47
2023-03-21T05:26:23.961Z,7.61
2023-03-21T05:29:12.128Z,7.65
2023-03-21T05:31:39.894Z,7.49
2023-03-21T05:34:13.666Z,7.47
2023-03-21T05:36:41.637Z,7.44
2023-03-21T05:39:11.206Z,7.40
2023-03-21T05:41:44.122Z,7.29
2023-03-21T05:44:11.965Z,7.28
2023-03-21T05:46:40.774Z,7.26
2023-03-21T05:49:08.468Z,7.05
2023-03-21T05:51:37.972Z,7.11
2023-03-21T05:54:06.294Z,7.22
2023-03-21T05:56:34.818Z,7.26
2023-03-21T05:59:05.801Z,7.26
2023-03-21T06:01:38.884Z,7.23
2023-03-21T06:04:11.980Z,7.31
2023-03-21T06:06:42.076Z,7.15
2023-03-21T06:09:09.882Z,7.00
2023-03-21T06:11:48.274Z,7.17
2023-03-21T06:14:35.573Z,7.15
2023-03-21T06:17:15.821Z,7.26
2023-03-21T06:19:51.907Z,7.16
2023-03-21T06:22:31.262Z,7.40
2023-03-21T06:24:59.149Z,7.50
2023-03-21T06:27:27.963Z,7.69
2023-03-21T06:29:57.942Z,7.78
2023-03-21T06:32:25.878Z,7.78
2023-03-21T06:34:58.757Z,7.70
2023-03-21T06:37:27.364Z,7.99
2023-03-21T06:39:57.024Z,8.26
2023-03-21T06:42:26.227Z,8.54
2023-03-21T06:44:59.802Z,8.86
2023-03-21T06:47:28.363Z,9.16
2023-03-21T06:49:56.525Z,9.46
2023-03-21T06:52:24.226Z,9.95
2023-03-21T06:54:54.462Z,10.26
2023-03-21T06:57:24.052Z,10.67
2023-03-21T06:59:51.776Z,10.63
2023-03-21T07:02:21.826Z,10.74
2023-03-21T07:05:08.503Z,11.02
2023-03-21T07:07:37.399Z,11.23
2023-03-21T07:10:06.288Z,11.48
2023-03-21T07:12:44.365Z,11.73
2023-03-21T07:15:17.468Z,12.05
2023-03-21T07:17:46.652Z,12.23
2023-03-21T07:20:14.419Z,12.25
2023-03-21T07:22:42.503Z,12.38
2023-03-21T07:25:11.402Z,12.52
2023-03-21T07:27:41.392Z,12.70
2023-03-21T07:30:12.341Z,12.36
2023-03-21T07:32:40.353Z,12.49
2023-03-21T07:35:09.792Z,12.68
2023-03-21T07:37:38.298Z,12.94
2023-03-21T07:40:10.498Z,12.84
2023-03-21T07:42:40.329Z,12.97
2023-03-21T07:45:14.455Z,12.29
2023-03-21T07:47:43.001Z,12.91
2023-03-21T07:50:11.351Z,12.69
2023-03-21T07:52:39.444Z,12.66
2023-03-21T07:55:07.617Z,12.69
2023-03-21T07:57:35.520Z,12.62
2023-03-21T08:00:05.255Z,12.52
2023-03-21T08:02:41.803Z,12.81
2023-03-21T08:05:11.523Z,12.73
2023-03-21T08:07:39.259Z,12.78
2023-03-21T08:10:08.259Z,12.78
2023-03-21T08:12:35.972Z,12.81
2023-03-21T08:15:03.642Z,12.90
2023-03-21T08:17:31.606Z,13.15
2023-03-21T08:20:00.591Z,13.14
2023-03-21T08:22:28.248Z,13.28
2023-03-21T08:24:55.857Z,13.64
2023-03-21T08:27:23.801Z,13.51
2023-03-21T08:29:51.433Z,13.72
2023-03-21T08:32:19.988Z,13.74
2023-03-21T08:34:47.735Z,13.85
2023-03-21T08:37:16.647Z,14.23
2023-03-21T08:39:44.459Z,14.51
2023-03-21T08:42:12.116Z,14.93
2023-03-21T08:44:41.440Z,14.87
2023-03-21T08:47:09.217Z,14.99
2023-03-21T08:49:37.228Z,14.49
2023-03-21T08:52:06.132Z,15.06
2023-03-21T08:54:35.258Z,14.67
2023-03-21T08:57:03.122Z,14.82
2023-03-21T08:59:30.889Z,14.62
2023-03-21T09:01:58.697Z,14.60
2023-03-21T09:04:26.989Z,14.47
2023-03-21T09:06:56.189Z,14.20
2023-03-21T09:09:23.941Z,14.29
2023-03-21T09:11:52.913Z,14.39
2023-03-21T09:14:23.844Z,14.45
2023-03-21T09:16:56.114Z,14.67
2023-03-21T09:19:24.220Z,14.38
2023-03-21T09:21:53.142Z,14.77
2023-03-21T09:24:21.929Z,14.78
2023-03-21T09:26:51.067Z,14.55
2023-03-21T09:29:21.339Z,14.50
2023-03-21T09:31:49.742Z,14.64
2023-03-21T09:34:17.712Z,14.68
2023-03-21T09:36:48.277Z,14.57
2023-03-21T09:39:16.158Z,14.40
2023-03-21T09:42:02.674Z,14.76
2023-03-21T09:44:44.521Z,14.89
2023-03-21T09:47:20.654Z,14.77
2023-03-21T09:49:56.617Z,14.78
2023-03-21T09:52:32.141Z,15.03
2023-03-21T09:55:00.032Z,15.00
2023-03-21T09:57:34.753Z,14.89
2023-03-21T10:00:11.336Z,14.75
2023-03-21T10:02:41.534Z,14.69
2023-03-21T10:05:17.658Z,14.59
2023-03-21T10:07:50.829Z,14.78
2023-03-21T10:10:21.720Z,14.97
2023-03-21T10:12:51.347Z,14.95
2023-03-21T10:15:23.767Z,14.99
2023-03-21T10:18:00.602Z,15.23
2023-03-21T10:20:32.449Z,15.05
2023-03-21T10:23:02.406Z,14.97
2023-03-21T10:25:34.643Z,14.98
2023-03-21T10:28:04.431Z,14.97
2023-03-21T10:30:45.197Z,14.90
2023-03-21T10:33:16.592Z,14.90
2023-03-21T10:35:47.491Z,14.64
2023-03-21T10:38:18.503Z,14.63
2023-03-21T10:40:46.917Z,15.20
2023-03-21T10:43:21.667Z,15.35
2023-03-21T10:45:50.776Z,14.97
2023-03-21T10:48:18.773Z,15.12
2023-03-21T10:50:49.977Z,15.37
2023-03-21T10:53:21.733Z,15.53
2023-03-21T10:55:52.977Z,14.87
2023-03-21T10:58:27.259Z,15.01
2023-03-21T11:00:59.117Z,14.96
2023-03-21T11:03:31.256Z,15.24
2023-03-21T11:06:04.000Z,14.82
2023-03-21T11:08:32.014Z,14.81
2023-03-21T11:11:04.016Z,14.98
2023-03-21T11:13:37.825Z,15.10
2023-03-21T11:16:09.933Z,14.67
2023-03-21T11:18:43.877Z,14.62
2023-03-21T11:21:14.283Z,14.65
2023-03-21T11:23:46.952Z,14.66
2023-03-21T11:26:23.909Z,14.80
2023-03-21T11:28:52.481Z,14.70
2023-03-21T11:31:24.727Z,14.79
2023-03-21T11:33:56.822Z,14.97
2023-03-21T11:36:35.104Z,14.92
2023-03-21T11:39:14.403Z,14.77
2023-03-21T11:41:43.690Z,14.64
2023-03-21T11:44:30.944Z,14.69
2023-03-21T11:47:00.678Z,14.85
2023-03-21T11:49:28.966Z,14.86
2023-03-21T11:52:07.388Z,14.83
2023-03-21T11:54:53.343Z,14.52
2023-03-21T11:57:29.560Z,14.76
2023-03-21T12:00:06.051Z,14.72
2023-03-21T12:03:07.895Z,14.64
2023-03-21T12:05:37.897Z,14.21
2023-03-21T12:08:18.070Z,13.98
2023-03-21T12:10:53.561Z,14.22
2023-03-21T12:13:33.135Z,14.28
2023-03-21T12:16:14.527Z,14.22
2023-03-21T12:19:01.495Z,14.24
2023-03-21T12:21:35.868Z,14.50
2023-03-21T12:24:09.923Z,14.87
2023-03-21T12:26:44.728Z,15.22
2023-03-21T12:29:37.377Z,15.47
2023-03-21T12:32:18.307Z,15.87
2023-03-21T12:35:00.466Z,16.15
2023-03-21T12:37:34.120Z,16.08
2023-03-21T12:40:10.206Z,15.99
2023-03-21T12:42:57.385Z,16.17
2023-03-21T12:45:37.321Z,16.15
2023-03-21T12:48:22.130Z,16.12
2023-03-21T12:50:54.768Z,15.99
2023-03-21T12:53:36.988Z,15.85
2023-03-21T12:56:10.241Z,15.87
2023-03-21T12:58:46.558Z,15.93
2023-03-21T13:01:17.662Z,15.90
2023-03-21T13:03:50.987Z,15.90
2023-03-21T13:06:23.721Z,15.93
2023-03-21T13:08:57.503Z,15.85
2023-03-21T13:11:28.475Z,15.95
2023-03-21T13:14:02.175Z,15.96
2023-03-21T13:16:34.328Z,15.95
2023-03-21T13:19:12.589Z,15.73
2023-03-21T13:21:52.024Z,15.83
2023-03-21T13:24:25.886Z,15.34
2023-03-21T13:27:01.352Z,15.18
2023-03-21T13:29:32.689Z,15.54
2023-03-21T13:32:09.877Z,15.28
2023-03-21T13:34:40.089Z,15.19
2023-03-21T13:37:16.448Z,15.24
2023-03-21T13:39:46.333Z,15.07
2023-03-21T13:42:22.404Z,15.17
2023-03-21T13:44:56.801Z,15.23
2023-03-21T13:47:32.991Z,15.06
2023-03-21T13:50:22.629Z,15.22
2023-03-21T13:53:33.383Z,14.99
2023-03-21T13:56:25.478Z,14.96
2023-03-21T13:59:01.874Z,14.79
2023-03-21T14:01:34.539Z,14.79
2023-03-21T14:04:10.857Z,14.61
2023-03-21T14:06:44.307Z,14.40
2023-03-21T14:09:19.830Z,14.38
2023-03-21T14:11:49.957Z,14.31
2023-03-21T14:14:18.159Z,14.02
2023-03-21T14:16:45.850Z,14.03
2023-03-21T14:19:13.713Z,13.94
2023-03-21T14:21:50.207Z,13.93
2023-03-21T14:24:19.115Z,13.87
2023-03-21T14:26:50.584Z,13.92
2023-03-21T14:29:26.432Z,13.76
2023-03-21T14:31:56.162Z,13.39
2023-03-21T14:34:24.895Z,13.05
2023-03-21T14:36:58.088Z,12.63
2023-03-21T14:39:30.851Z,12.54
2023-03-21T14:42:06.061Z,12.49
2023-03-21T14:44:51.032Z,12.51
2023-03-21T14:47:23.962Z,12.54
2023-03-21T14:49:52.156Z,12.49
2023-03-21T14:52:24.758Z,12.35
2023-03-21T14:54:53.654Z,12.14
2023-03-21T14:57:26.009Z,12.19
2023-03-21T14:59:56.180Z,12.21
2023-03-21T15:02:27.555Z,12.21
2023-03-21T15:04:58.118Z,12.15
2023-03-21T15:07:29.494Z,12.13
2023-03-21T15:09:59.181Z,12.13
2023-03-21T15:12:28.463Z,12.06
2023-03-21T15:14:56.928Z,11.93
2023-03-21T15:17:25.794Z,11.78
2023-03-21T15:19:53.568Z,11.79
2023-03-21T15:22:28.881Z,11.67
2023-03-21T15:25:01.988Z,11.92
2023-03-21T15:27:34.086Z,11.76
2023-03-21T15:30:02.041Z,11.85
2023-03-21T15:32:30.328Z,11.87
2023-03-21T15:35:07.621Z,11.97
2023-03-21T15:37:37.784Z,12.07
2023-03-21T15:40:11.293Z,11.96
2023-03-21T15:42:41.667Z,11.92
2023-03-21T15:45:19.628Z,11.82
2023-03-21T15:47:56.544Z,11.84
2023-03-21T15:50:33.308Z,11.66
2023-03-21T15:53:03.744Z,11.69
2023-03-21T15:55:37.062Z,11.62
2023-03-21T15:58:12.957Z,11.53
2023-03-21T16:00:43.754Z,11.67
2023-03-21T16:03:17.538Z,11.71
2023-03-21T16:06:04.050Z,11.80
2023-03-21T16:08:35.719Z,11.68
2023-03-21T16:11:14.943Z,11.52
2023-03-21T16:13:44.017Z,11.59
2023-03-21T16:16:17.276Z,11.45
2023-03-21T16:18:45.305Z,11.63
2023-03-21T16:21:13.693Z,11.70
2023-03-21T16:23:41.847Z,11.67
2023-03-21T16:26:12.801Z,11.66
2023-03-21T16:28:40.506Z,11.68
2023-03-21T16:31:14.140Z,11.64
2023-03-21T16:33:42.241Z,11.68
2023-03-21T16:36:14.002Z,11.48
2023-03-21T16:38:41.701Z,11.43
2023-03-21T16:41:11.605Z,11.48
2023-03-21T16:43:42.981Z,11.59
2023-03-21T16:46:14.915Z,11.44
2023-03-21T16:48:45.431Z,11.51
2023-03-21T16:51:14.820Z,11.55
2023-03-21T16:53:42.827Z,11.51
2023-03-21T16:56:16.192Z,11.43
2023-03-21T16:58:44.477Z,11.36
2023-03-21T17:01:16.454Z,11.28
2023-03-21T17:03:44.166Z,11.30
2023-03-21T17:06:15.964Z,11.27
2023-03-21T17:08:43.987Z,11.26
2023-03-21T17:11:12.520Z,11.27
2023-03-21T17:13:40.441Z,11.15
2023-03-21T17:16:08.706Z,11.19
2023-03-21T17:18:37.843Z,11.11
2023-03-21T17:21:12.837Z,11.03
2023-03-21T17:23:40.632Z,10.87
2023-03-21T17:26:10.577Z,10.80
2023-03-21T17:28:39.149Z,10.80
2023-03-21T17:31:13.490Z,10.71
2023-03-21T17:33:43.184Z,10.69
2023-03-21T17:36:15.196Z,10.66
2023-03-21T17:38:42.892Z,10.58
2023-03-21T17:41:12.790Z,10.40
2023-03-21T17:43:41.000Z,10.29
2023-03-21T17:46:13.935Z,10.22
2023-03-21T17:48:43.876Z,10.27
2023-03-21T17:51:14.578Z,10.15
2023-03-21T17:53:42.538Z,10.14
2023-03-21T17:56:14.826Z,10.15
2023-03-21T17:58:42.644Z,10.08
2023-03-21T18:01:10.395Z,10.14
2023-03-21T18:03:38.061Z,10.10
2023-03-21T18:06:08.187Z,9.97
2023-03-21T18:08:35.925Z,9.91
2023-03-21T18:11:03.642Z,9.88
2023-03-21T18:13:31.295Z,9.84
2023-03-21T18:15:59.751Z,9.81
2023-03-21T18:18:28.101Z,9.76
2023-03-21T18:20:58.040Z,9.83
2023-03-21T18:23:27.725Z,9.85
2023-03-21T18:25:55.525Z,9.66
2023-03-21T18:28:23.605Z,9.56
2023-03-21T18:31:08.622Z,9.63
2023-03-21T18:33:40.314Z,9.64
2023-03-21T18:36:09.134Z,9.84
2023-03-21T18:38:38.557Z,9.95
2023-03-21T18:41:07.545Z,9.88
2023-03-21T18:46:25.133Z,10.13
2023-03-21T18:48:52.766Z,10.31
2023-03-21T18:51:21.701Z,10.43
2023-03-21T18:53:51.387Z,10.38
2023-03-21T18:57:05.914Z,10.23
2023-03-21T18:59:08.659Z,10.40
2023-03-21T19:01:36.536Z,10.48
2023-03-21T19:06:52.936Z,10.72
2023-03-21T19:09:29.659Z,10.93
2023-03-21T19:11:59.886Z,11.07
2023-03-21T19:14:28.390Z,11.36
2023-03-21T19:19:46.592Z,11.56
2023-03-21T19:22:14.481Z,11.74
2023-03-21T19:24:44.390Z,11.66
2023-03-21T19:27:13.186Z,11.69
2023-03-21T19:29:40.794Z,11.95
2023-03-21T19:32:08.809Z,11.92
2023-03-21T19:34:36.701Z,12.20
2023-03-21T19:37:04.786Z,12.20
2023-03-21T19:39:32.517Z,12.34
2023-03-21T19:42:15.567Z,12.34
2023-03-21T19:44:44.764Z,12.53
2023-03-21T19:47:12.802Z,12.46
2023-03-21T19:52:29.198Z,12.56
2023-03-21T19:54:57.001Z,12.46
2023-03-21T19:57:26.245Z,12.41
2023-03-21T19:59:54.935Z,12.58
2023-03-21T20:02:35.144Z,12.60
2023-03-21T20:05:03.916Z,12.78
2023-03-21T20:07:32.696Z,12.82
2023-03-21T20:10:01.074Z,12.76
2023-03-21T20:12:30.653Z,12.82
2023-03-21T20:15:09.574Z,12.89
2023-03-21T20:17:43.396Z,12.85
2023-03-21T20:20:14.873Z,12.90
2023-03-21T20:23:05.693Z,12.98
2023-03-21T20:25:31.207Z,12.85
2023-03-21T20:28:15.140Z,12.90
2023-03-21T20:30:47.993Z,12.99
2023-03-21T20:33:15.755Z,13.10
2023-03-21T20:36:29.465Z,13.11
2023-03-21T20:38:32.203Z,13.15
2023-03-21T20:41:00.399Z,13.09
2023-03-21T20:44:20.398Z,13.04
2023-03-21T20:46:17.527Z,12.93
2023-03-21T20:48:48.699Z,13.06
2023-03-21T20:52:14.735Z,12.89
2023-03-21T20:54:05.109Z,12.91
2023-03-21T20:56:32.801Z,12.88
2023-03-21T20:59:15.719Z,12.91
2023-03-21T21:01:45.536Z,12.88
2023-03-21T21:04:19.279Z,12.84
2023-03-21T21:06:47.667Z,12.69
2023-03-21T21:09:15.474Z,12.56
2023-03-21T21:12:06.050Z,12.46
2023-03-21T21:14:32.227Z,12.46
2023-03-21T21:17:04.950Z,12.59
2023-03-21T21:19:40.196Z,12.50
2023-03-21T21:22:07.811Z,12.44
2023-03-21T21:24:35.564Z,12.38
2023-03-21T21:27:03.244Z,12.39
2023-03-21T21:29:32.543Z,12.12
2023-03-21T21:32:02.319Z,11.92
2023-03-21T21:34:30.371Z,11.78
2023-03-21T21:36:58.075Z,11.77
2023-03-21T21:39:26.550Z,11.81
2023-03-21T21:41:54.636Z,11.49
2023-03-21T21:44:22.381Z,11.33
2023-03-21T21:46:51.407Z,11.43
2023-03-21T21:49:19.074Z,11.15
2023-03-21T21:51:48.038Z,11.34
2023-03-21T21:54:18.222Z,11.57
2023-03-21T21:56:48.290Z,11.46
2023-03-21T21:59:17.044Z,11.73
2023-03-21T22:01:46.557Z,11.79
2023-03-21T22:04:17.928Z,11.91
2023-03-21T22:06:47.521Z,12.21
2023-03-21T22:09:15.683Z,12.45
2023-03-21T22:11:43.817Z,12.37
2023-03-21T22:14:11.406Z,11.85
2023-03-21T22:16:39.089Z,11.92
2023-03-21T22:19:06.786Z,12.15
2023-03-21T22:21:35.815Z,12.01
2023-03-21T22:24:03.596Z,11.79
2023-03-21T22:26:31.358Z,11.76
2023-03-21T22:28:59.886Z,11.45
2023-03-21T22:31:27.536Z,11.58
2023-03-21T22:33:55.300Z,11.99
2023-03-21T22:36:22.905Z,11.53
2023-03-21T22:38:51.863Z,12.13
2023-03-21T22:41:19.901Z,11.56
2023-03-21T22:43:47.535Z,12.25
2023-03-21T22:46:15.508Z,12.28
2023-03-21T22:48:43.442Z,12.21
2023-03-21T22:51:11.261Z,12.33
2023-03-21T22:53:38.873Z,12.36
2023-03-21T22:56:09.420Z,12.36
2023-03-21T22:58:37.066Z,12.58
2023-03-21T23:01:05.182Z,12.54
2023-03-21T23:03:33.332Z,12.59
2023-03-21T23:06:02.091Z,12.60
2023-03-21T23:08:29.870Z,12.52
2023-03-21T23:10:57.527Z,12.67
2023-03-21T23:13:27.906Z,12.62
2023-03-21T23:15:55.705Z,12.49
2023-03-21T23:18:23.345Z,12.41
2023-03-21T23:20:51.332Z,12.37
2023-03-21T23:23:18.963Z,12.50
2023-03-21T23:25:46.813Z,12.50
2023-03-21T23:28:14.416Z,12.67
2023-03-21T23:30:43.682Z,12.57
2023-03-21T23:33:11.526Z,12.45
2023-03-21T23:35:39.300Z,12.55
2023-03-21T23:38:07.005Z,12.65
2023-03-21T23:40:34.615Z,12.35
2023-03-21T23:43:02.260Z,12.53
2023-03-21T23:45:29.953Z,12.60
2023-03-21T23:47:58.963Z,12.58
2023-03-21T23:50:26.732Z,12.57
2023-03-21T23:52:54.626Z,12.51
2023-03-21T23:55:22.250Z,12.66
2023-03-21T23:57:58.711Z,12.64
